Time;durP1;ratioP1;P1;durP2;ratioP2;P2;SDS_P1;SDS_P2;PMS_P1;PMS_P2;Temp;Humidity;BMP_temperature;BMP_pressure;BME280_temperature;BME280_humidity;BME280_pressure;Samples;Min_cycle;Max_cycle;Signal;HPM_P1;HPM_P2
2022/06/02 00:01:56;;;;;;;6.18;3.60;;;;;;;18.51;83.24;95003.38;5033142;28;20631;-80
2022/06/02 00:04:43;;;;;;;8.63;3.10;;;;;;;18.56;83.29;95012.22;5024696;28;20230;-79
2022/06/02 00:07:17;;;;;;;8.57;3.88;;;;;;;18.55;83.93;95012.47;5033235;28;20211;-79
2022/06/02 00:10:12;;;;;;;8.18;3.92;;;;;;;18.51;84.20;95016.72;5033211;28;20191;-79
2022/06/02 00:12:58;;;;;;;12.30;3.60;;;;;;;18.43;83.59;95000.09;5019666;28;20192;-79
2022/06/02 00:15:34;;;;;;;10.38;3.90;;;;;;;18.44;83.86;95009.72;5026536;28;20180;-79
2022/06/02 00:18:10;;;;;;;6.32;3.35;;;;;;;18.22;83.96;94974.38;5032849;28;20716;-79
2022/06/02 00:20:46;;;;;;;8.18;4.13;;;;;;;18.29;84.32;94995.47;5032756;28;20178;-79
2022/06/02 00:23:34;;;;;;;6.72;3.90;;;;;;;18.35;84.78;95008.56;5032728;28;20199;-79
2022/06/02 00:26:44;;;;;;;6.30;4.13;;;;;;;18.39;84.68;95015.03;5024827;28;20172;-79
2022/06/02 00:29:30;;;;;;;7.80;3.50;;;;;;;18.33;84.44;95016.03;5005648;28;20194;-79
2022/06/02 00:32:02;;;;;;;6.93;3.47;;;;;;;18.32;84.78;95017.09;5014921;28;20172;-79
2022/06/02 00:35:04;;;;;;;7.85;3.78;;;;;;;18.25;84.79;95013.81;5015364;28;20171;-79
2022/06/02 00:38:03;;;;;;;7.80;3.40;;;;;;;18.28;84.87;95009.84;5032403;28;20349;-79
2022/06/02 00:40:31;;;;;;;5.22;3.50;;;;;;;18.22;84.63;95003.69;5033040;28;20207;-79
2022/06/02 00:43:18;;;;;;;7.78;3.50;;;;;;;18.24;84.86;95012.25;5032521;28;20202;-79
2022/06/02 00:45:45;;;;;;;6.80;3.78;;;;;;;18.21;84.66;95011.94;5032700;28;20171;-79
2022/06/02 00:48:53;;;;;;;10.10;4.00;;;;;;;18.18;84.44;95015.09;5014452;28;20553;-79
2022/06/02 00:51:30;;;;;;;7.95;3.55;;;;;;;17.99;84.45;94988.03;5010791;28;20193;-79
2022/06/02 00:57:31;;;;;;;5.63;3.10;;;;;;;18.06;84.94;95012.63;5024414;28;20205;-79
2022/06/02 01:00:01;;;;;;;7.65;3.63;;;;;;;17.98;84.86;94991.78;5032550;28;20196;-79
2022/06/02 01:02:30;;;;;;;10.57;4.38;;;;;;;17.78;84.67;94972.94;5023710;28;20257;-79
2022/06/02 01:05:00;;;;;;;7.35;3.47;;;;;;;17.99;84.95;95010.13;5032445;28;20171;-79
2022/06/02 01:07:50;;;;;;;4.43;3.75;;;;;;;18.01;84.88;95009.88;5032090;28;20230;-78
2022/06/02 01:10:33;;;;;;;15.60;4.72;;;;;;;17.94;84.92;95004.78;5031774;28;20183;-79
2022/06/02 01:13:08;;;;;;;7.60;4.22;;;;;;;17.96;85.08;95008.00;5030890;28;20214;-79
2022/06/02 01:16:12;;;;;;;9.45;4.35;;;;;;;17.89;84.96;95001.28;5031033;28;20179;-79
2022/06/02 01:19:05;;;;;;;8.52;3.80;;;;;;;17.90;85.35;95010.88;5013059;28;20578;-79
2022/06/02 01:21:57;;;;;;;10.13;3.97;;;;;;;17.86;85.65;95004.44;5013523;28;20183;-79
2022/06/02 01:24:58;;;;;;;9.13;4.47;;;;;;;17.82;85.75;95008.63;5026674;28;20742;-79
2022/06/02 01:27:34;;;;;;;7.05;3.75;;;;;;;17.82;85.62;95013.97;5032117;28;20608;-79
2022/06/02 01:30:16;;;;;;;14.07;3.83;;;;;;;17.75;85.57;94992.06;5031622;28;20696;-79
2022/06/02 01:32:53;;;;;;;9.98;4.57;;;;;;;17.81;85.51;95012.38;5023718;28;20238;-79
2022/06/02 01:35:48;;;;;;;11.30;3.90;;;;;;;17.64;85.66;94993.84;5031703;28;20210;-79
2022/06/02 01:38:29;;;;;;;11.73;4.80;;;;;;;17.69;85.99;95009.88;5005595;28;20610;-79
2022/06/02 01:41:17;;;;;;;7.90;4.53;;;;;;;17.68;86.12;95014.38;5035887;28;20710;-79
2022/06/02 01:43:58;;;;;;;7.85;3.92;;;;;;;17.63;86.10;95006.34;5036223;28;20238;-79
2022/06/02 01:46:48;;;;;;;7.35;4.63;;;;;;;17.69;86.44;95012.53;5036203;28;20194;-79
2022/06/02 01:49:21;;;;;;;7.70;4.43;;;;;;;17.53;86.81;94994.75;5036065;28;20179;-81
2022/06/02 01:51:58;;;;;;;9.10;4.90;;;;;;;17.56;86.92;95008.34;5035458;28;20179;-81
2022/06/02 01:54:59;;;;;;;9.00;4.43;;;;;;;17.52;87.36;95011.78;5018409;28;20171;-81
2022/06/02 01:57:37;;;;;;;16.80;3.90;;;;;;;17.34;87.47;94992.44;5010088;28;20261;-80
2022/06/02 02:00:17;;;;;;;5.88;4.30;;;;;;;17.51;87.33;95005.66;5014468;28;20587;-80
2022/06/02 02:02:45;;;;;;;10.55;4.40;;;;;;;17.53;87.03;95008.88;5027179;28;20195;-80
2022/06/02 02:05:17;;;;;;;9.57;4.47;;;;;;;17.48;86.87;95000.00;5035474;28;20186;-80
2022/06/02 02:07:48;;;;;;;7.85;3.47;;;;;;;17.55;86.89;95006.78;5017590;28;20203;-80
2022/06/02 02:10:38;;;;;;;10.27;4.05;;;;;;;17.55;86.76;95004.09;5027054;28;20271;-80
2022/06/02 02:13:31;;;;;;;7.90;4.68;;;;;;;17.53;86.48;95002.75;5035857;28;20184;-80
2022/06/02 02:16:28;;;;;;;6.32;3.85;;;;;;;17.37;86.79;94983.16;5035505;28;20172;-80
2022/06/02 02:19:31;;;;;;;9.98;4.00;;;;;;;17.51;86.33;95008.31;5009440;28;20542;-80
2022/06/02 02:22:24;;;;;;;6.47;3.67;;;;;;;17.44;87.00;95001.56;5035158;28;20182;-80
2022/06/02 02:25:01;;;;;;;35.88;19.63;;;;;;;17.42;87.27;95001.81;5035487;28;20211;-80
2022/06/02 02:30:43;;;;;;;37.30;16.58;;;;;;;17.43;87.33;95000.78;5016282;28;20199;-80
2022/06/02 02:33:30;;;;;;;33.38;16.98;;;;;;;17.47;86.99;95012.50;5027548;28;20252;-80
2022/06/02 02:36:22;;;;;;;37.85;20.92;;;;;;;17.50;86.84;95009.38;5024590;28;20203;-80
2022/06/02 02:39:06;;;;;;;17.77;9.50;;;;;;;17.42;86.85;95006.34;5035175;28;20172;-80
2022/06/02 02:41:53;;;;;;;17.73;8.35;;;;;;;17.41;86.69;95004.72;5027748;28;20164;-81
2022/06/02 02:44:52;;;;;;;14.70;7.55;;;;;;;17.43;86.56;94999.97;5034725;28;20737;-80
2022/06/02 02:47:23;;;;;;;15.88;7.18;;;;;;;17.36;86.42;94989.53;5034493;28;20639;-81
2022/06/02 02:49:56;;;;;;;22.33;9.45;;;;;;;17.32;86.71;94999.84;5034192;28;20266;-80
2022/06/02 02:52:49;;;;;;;26.73;13.18;;;;;;;17.34;86.91;94999.59;5034833;28;20172;-80
2022/06/02 02:55:27;;;;;;;29.00;15.23;;;;;;;17.37;87.02;95016.94;5034630;28;20266;-81
2022/06/02 02:58:05;;;;;;;15.98;8.75;;;;;;;17.38;86.76;95008.72;5016847;28;20179;-81
2022/06/02 03:01:02;;;;;;;54.95;35.13;;;;;;;17.30;86.96;95012.59;5034269;28;20679;-81
2022/06/02 03:04:06;;;;;;;70.90;44.47;;;;;;;17.19;87.52;95004.75;5034022;28;20188;-81
2022/06/02 03:06:37;;;;;;;70.97;45.58;;;;;;;17.17;87.56;95004.19;5011526;28;20679;-80
2022/06/02 03:09:13;;;;;;;65.10;41.75;;;;;;;17.24;87.01;95010.13;5012934;28;20177;-82
2022/06/02 03:11:44;;;;;;;57.97;36.78;;;;;;;17.30;87.16;95025.91;5026368;28;20639;-79
2022/06/02 03:14:41;;;;;;;49.13;29.58;;;;;;;17.32;87.20;95029.13;5034115;28;20654;-79
2022/06/02 03:17:43;;;;;;;47.65;28.08;;;;;;;17.31;86.94;95024.84;5026855;28;21038;-79
2022/06/02 03:20:36;;;;;;;54.63;30.38;;;;;;;17.33;87.15;95028.06;5033796;28;20175;-79
2022/06/02 03:23:35;;;;;;;53.63;30.38;;;;;;;17.35;87.22;95023.31;5031025;28;20222;-79
2022/06/02 03:26:16;;;;;;;50.15;30.40;;;;;;;17.36;87.71;95016.13;5033320;28;20246;-79
2022/06/02 03:28:57;;;;;;;47.63;28.25;;;;;;;17.30;87.19;94996.63;5033690;28;20202;-79
2022/06/02 03:31:36;;;;;;;42.78;26.88;;;;;;;17.52;87.06;95023.22;5033508;28;20251;-79
2022/06/02 03:34:20;;;;;;;35.38;21.63;;;;;;;17.62;86.34;95025.25;5033514;28;20799;-79
2022/06/02 03:37:22;;;;;;;36.40;21.65;;;;;;;17.64;86.49;95031.91;5032657;28;20183;-79
2022/06/02 03:40:15;;;;;;;37.90;20.17;;;;;;;17.69;86.10;95028.50;5031167;28;20167;-79
2022/06/02 03:43:06;;;;;;;28.58;18.90;;;;;;;17.71;86.31;95013.88;5028226;28;20203;-79
2022/06/02 03:45:34;;;;;;;30.58;19.52;;;;;;;18.02;85.54;95024.81;5032397;28;20176;-82
2022/06/02 03:48:08;;;;;;;36.47;19.00;;;;;;;18.12;85.28;95018.78;5033142;28;20187;-82
2022/06/02 03:50:59;;;;;;;31.27;18.45;;;;;;;18.16;84.74;95017.22;5033200;28;20568;-82
2022/06/02 03:53:49;;;;;;;29.52;16.63;;;;;;;18.15;84.63;95012.97;5014398;28;20226;-82
2022/06/02 03:56:43;;;;;;;25.73;14.70;;;;;;;18.30;84.41;95018.41;5030994;28;20670;-82
2022/06/02 03:59:41;;;;;;;26.13;13.10;;;;;;;18.55;83.65;95015.94;5030326;28;20164;-82
2022/06/02 04:02:14;;;;;;;16.40;7.30;;;;;;;18.66;81.99;94992.84;5009960;28;20286;-83
2022/06/02 04:04:42;;;;;;;13.43;7.55;;;;;;;18.94;81.47;95007.69;5031120;28;20203;-83
2022/06/02 04:07:14;;;;;;;12.77;5.65;;;;;;;19.01;80.74;95009.03;5032728;28;20904;-83
2022/06/02 04:09:56;;;;;;;12.52;6.18;;;;;;;19.18;80.06;95012.31;5032718;28;20172;-82
2022/06/02 04:16:08;;;;;;;12.05;5.82;;;;;;;19.65;78.16;94989.25;5032387;28;20178;-83
2022/06/02 04:19:01;;;;;;;10.73;5.72;;;;;;;20.03;77.54;95015.53;5014758;28;20552;-83
2022/06/02 04:21:45;;;;;;;9.23;5.60;;;;;;;20.29;77.53;95021.69;5032298;28;20253;-83
2022/06/02 04:24:10;;;;;;;13.80;6.47;;;;;;;20.56;77.61;95022.25;5031896;28;20290;-83
2022/06/02 04:27:08;;;;;;;8.52;5.18;;;;;;;20.69;76.36;95011.00;5032394;28;20314;-83
2022/06/02 04:29:45;;;;;;;7.93;4.80;;;;;;;20.97;74.36;95025.66;5032826;28;21009;-83
2022/06/02 04:32:39;;;;;;;6.15;4.75;;;;;;;21.13;74.03;95031.78;5011414;28;20234;-83
2022/06/02 04:35:05;;;;;;;10.05;5.00;;;;;;;21.26;73.27;95038.47;5019759;28;20728;-83
2022/06/02 04:37:48;;;;;;;18.13;5.78;;;;;;;21.41;72.66;95033.06;5032559;28;20262;-83
2022/06/02 04:40:35;;;;;;;7.90;4.60;;;;;;;21.55;71.94;95041.31;5012690;28;20547;-83
2022/06/02 04:43:11;;;;;;;12.63;5.20;;;;;;;21.66;72.90;95032.94;5031407;28;20200;-82
2022/06/02 04:45:59;;;;;;;7.00;4.40;;;;;;;21.98;71.30;95043.25;5014594;28;20205;-82
2022/06/02 04:48:43;;;;;;;7.53;4.35;;;;;;;22.28;69.33;95052.19;5032285;28;20663;-82
2022/06/02 04:51:24;;;;;;;13.02;4.97;;;;;;;22.50;68.93;95055.25;5024594;28;20664;-82
2022/06/02 04:54:04;;;;;;;18.65;5.07;;;;;;;22.84;67.97;95060.63;5022583;28;20258;-82
2022/06/02 04:56:46;;;;;;;14.32;4.82;;;;;;;23.23;65.77;95063.22;5024359;28;20202;-82
2022/06/02 04:59:30;;;;;;;13.70;5.78;;;;;;;23.48;64.52;95060.25;5017809;28;20186;-82
2022/06/02 05:02:13;;;;;;;13.82;4.95;;;;;;;23.68;63.66;95060.03;5009282;28;20448;-82
2022/06/02 05:05:00;;;;;;;16.42;5.05;;;;;;;23.66;63.97;95054.16;5013891;28;20199;-81
2022/06/02 05:07:34;;;;;;;7.10;4.57;;;;;;;23.99;63.63;95063.13;5032089;28;20567;-81
2022/06/02 05:10:12;;;;;;;795.63;709.42;;;;;;;24.48;62.10;95061.09;5031923;28;20644;-81
2022/06/02 05:13:07;;;;;;;1999.90;999.90;;;;;;;25.05;60.49;95057.22;5031745;28;20199;-81
2022/06/02 05:16:03;;;;;;;214.82;193.07;;;;;;;25.50;59.03;95060.97;5024660;28;20662;-81
2022/06/02 05:19:01;;;;;;;35.25;16.58;;;;;;;26.02;57.49;95045.38;5031846;28;20168;-81
2022/06/02 05:21:33;;;;;;;8.82;4.43;;;;;;;26.55;55.75;95057.13;5014094;28;20191;-81
2022/06/02 05:24:11;;;;;;;9.18;4.53;;;;;;;27.02;56.43;95046.81;5032063;28;20254;-81
2022/06/02 05:26:59;;;;;;;6.30;3.75;;;;;;;27.57;54.04;95046.47;5031987;28;20175;-81
2022/06/02 05:29:40;;;;;;;11.18;3.58;;;;;;;28.27;53.35;95045.53;5014363;28;20213;-81
2022/06/02 05:32:11;;;;;;;4.38;3.35;;;;;;;28.75;49.99;95048.06;5008354;28;20687;-80
2022/06/02 05:35:14;;;;;;;10.65;3.72;;;;;;;29.32;50.65;95051.31;5030727;28;20167;-80
2022/06/02 05:37:44;;;;;;;4.72;3.20;;;;;;;29.86;47.04;95054.31;5031670;28;20210;-82
2022/06/02 05:40:32;;;;;;;10.95;3.75;;;;;;;30.04;47.27;95055.81;5021586;28;20184;-83
2022/06/02 05:43:00;;;;;;;6.78;3.60;;;;;;;29.85;46.31;95053.50;5013470;28;20208;-82
2022/06/02 05:45:48;;;;;;;6.50;3.60;;;;;;;29.80;47.93;95052.91;5026806;28;20190;-83
2022/06/02 05:48:38;;;;;;;6.10;3.08;;;;;;;30.11;47.52;95050.66;4981062;28;20196;-82
2022/06/02 05:51:25;;;;;;;7.07;4.18;;;;;;;30.10;45.48;95032.78;5006026;28;20187;-83
2022/06/02 05:54:05;;;;;;;10.32;4.80;;;;;;;29.84;46.91;95051.16;5031430;28;20164;-81
2022/06/02 05:56:42;;;;;;;8.73;5.03;;;;;;;29.53;47.62;95046.81;5029697;28;20172;-82
2022/06/02 05:59:31;;;;;;;9.95;4.50;;;;;;;29.40;47.20;95047.81;5030142;28;20642;-82
2022/06/02 06:02:25;;;;;;;11.23;4.70;;;;;;;29.50;47.76;95054.78;4980769;28;20191;-84
2022/06/02 06:05:00;;;;;;;11.93;4.47;;;;;;;29.50;47.83;95058.31;5029750;28;20176;-83
2022/06/02 06:07:25;;;;;;;9.45;4.40;;;;;;;29.40;46.44;95047.81;5030715;28;20183;-83
2022/06/02 06:10:17;;;;;;;8.52;4.57;;;;;;;28.95;47.03;95024.94;5007969;28;20188;-81
2022/06/02 06:12:56;;;;;;;10.73;4.88;;;;;;;29.30;47.38;95048.16;5024371;28;20166;-80
2022/06/02 06:15:34;;;;;;;8.82;4.63;;;;;;;29.33;46.49;95057.53;5013182;28;20226;-81
2022/06/02 06:18:18;;;;;;;13.10;5.35;;;;;;;28.63;47.10;95059.53;5030784;28;20175;-81
2022/06/02 06:20:55;;;;;;;9.40;5.22;;;;;;;28.08;49.30;95046.59;5031225;28;20172;-83
2022/06/02 06:23:42;;;;;;;12.52;5.35;;;;;;;28.07;49.68;95038.78;5023827;28;20291;-81
2022/06/02 06:26:29;;;;;;;11.05;5.32;;;;;;;28.39;49.45;95054.63;5034724;28;20187;-81
2022/06/02 06:29:19;;;;;;;19.10;6.75;;;;;;;28.54;48.93;95062.25;5028488;28;20266;-80
2022/06/02 06:32:09;;;;;;;10.10;5.22;;;;;;;28.49;49.24;95034.53;5034779;28;20234;-81
2022/06/02 06:34:56;;;;;;;18.23;5.88;;;;;;;28.79;48.94;95049.88;5034657;28;20192;-80
2022/06/02 06:38:06;;;;;;;10.70;6.40;;;;;;;28.30;48.87;95045.69;5027360;28;20176;-83
2022/06/02 06:40:52;;;;;;;10.52;5.28;;;;;;;28.20;49.26;95048.69;4995525;28;20206;-81
2022/06/02 06:43:58;;;;;;;13.77;5.40;;;;;;;28.27;50.78;95032.00;5013203;28;20684;-81
2022/06/02 06:46:40;;;;;;;20.08;5.90;;;;;;;28.62;48.30;95051.75;5021930;28;20218;-82
2022/06/02 06:49:15;;;;;;;8.98;5.13;;;;;;;28.39;50.35;95051.09;5016619;28;20171;-80
2022/06/02 06:52:05;;;;;;;14.30;6.70;;;;;;;28.65;47.79;95053.81;5034258;28;20167;-81
2022/06/02 06:54:52;;;;;;;9.98;5.68;;;;;;;28.74;48.97;95051.91;5008748;28;20663;-81
2022/06/02 06:57:38;;;;;;;8.68;5.25;;;;;;;29.02;49.36;95046.94;5034338;28;20655;-81
2022/06/02 07:00:19;;;;;;;11.73;5.88;;;;;;;28.86;47.08;95042.03;5006593;28;20269;-80
2022/06/02 07:03:14;;;;;;;9.70;5.32;;;;;;;28.18;48.15;95029.28;5031443;28;20192;-81
2022/06/02 07:05:48;;;;;;;9.48;5.03;;;;;;;28.24;52.15;95040.75;5029393;28;20189;-81
2022/06/02 07:08:38;;;;;;;8.18;4.72;;;;;;;28.80;51.33;95043.28;5033981;28;20171;-82
2022/06/02 07:12:50;;;;;;;11.55;5.90;;;;;;;29.13;47.33;95043.56;5016298;28;20306;-82
2022/06/02 07:14:03;;;;;;;11.95;5.78;;;;;;;28.74;47.04;95024.78;5026194;28;20606;-80
2022/06/02 07:16:41;;;;;;;8.88;4.88;;;;;;;29.04;48.21;95050.13;5031384;28;20209;-80
2022/06/02 07:19:30;;;;;;;17.48;4.53;;;;;;;29.53;49.84;95046.81;5041259;28;20666;-81
2022/06/02 07:22:05;;;;;;;7.85;4.50;;;;;;;29.86;47.32;95051.59;5033851;28;20156;-78
2022/06/02 07:24:45;;;;;;;11.85;4.72;;;;;;;30.34;47.69;95051.16;5034613;28;21827;-80
2022/06/02 07:27:20;;;;;;;16.05;8.50;;;;;;;30.55;45.33;95032.16;5054043;28;20170;-81
2022/06/02 07:30:07;;;;;;;8.13;4.65;;;;;;;30.53;45.95;95051.50;5036554;28;20194;-82
2022/06/02 07:33:03;;;;;;;9.38;4.88;;;;;;;30.02;44.59;94996.41;5041138;28;20757;-85
2022/06/02 07:36:02;;;;;;;8.27;3.90;;;;;;;30.53;47.46;95051.50;5007820;28;20230;-80
2022/06/02 07:39:01;;;;;;;12.13;4.40;;;;;;;30.69;43.11;95049.00;5028292;28;20180;-80
2022/06/02 07:41:55;;;;;;;8.63;4.60;;;;;;;30.74;45.20;95046.06;5035155;28;20208;-82
2022/06/02 07:44:58;;;;;;;8.60;4.65;;;;;;;31.19;46.72;95045.34;5037263;28;20341;-78
2022/06/02 07:47:56;;;;;;;10.10;4.15;;;;;;;31.62;43.95;95047.59;5002985;28;20183;-79
2022/06/02 07:50:33;;;;;;;7.22;4.18;;;;;;;31.77;45.10;95044.19;5035682;28;20171;-79
2022/06/02 07:53:05;;;;;;;8.88;4.45;;;;;;;31.85;44.84;95041.34;5028146;28;20167;-80
2022/06/02 07:56:04;;;;;;;9.75;3.70;;;;;;;31.83;42.50;95048.25;5032450;28;20172;-79
2022/06/02 07:59:16;;;;;;;9.73;4.10;;;;;;;31.87;42.92;95043.72;5032309;28;20176;-79
2022/06/02 08:02:35;;;;;;;8.85;3.80;;;;;;;31.95;41.40;95045.53;5033017;28;20183;-81
2022/06/02 08:05:33;;;;;;;9.18;3.95;;;;;;;32.19;41.05;95039.28;4971703;28;20696;-80
2022/06/02 08:08:08;;;;;;;6.45;3.83;;;;;;;32.07;38.27;95044.75;5030014;28;20230;-80
2022/06/02 08:10:43;;;;;;;6.05;3.60;;;;;;;31.79;40.26;95042.72;5032201;28;20241;-79
2022/06/02 08:13:08;;;;;;;10.68;3.10;;;;;;;31.62;39.69;95042.13;5039634;28;20171;-80
2022/06/02 08:15:52;;;;;;;6.07;3.22;;;;;;;31.49;38.56;95047.53;5028122;28;20175;-80
2022/06/02 08:18:48;;;;;;;8.57;3.13;;;;;;;31.16;40.61;95040.56;5032187;28;20183;-80
2022/06/02 08:21:40;;;;;;;6.38;3.38;;;;;;;31.15;40.16;95038.97;5028219;28;21050;-81
2022/06/02 08:24:36;;;;;;;12.80;3.42;;;;;;;31.31;43.23;95042.66;5028910;28;20234;-80
2022/06/02 08:27:12;;;;;;;13.38;4.28;;;;;;;31.46;40.63;95040.06;5032345;28;20619;-80
2022/06/02 08:29:59;;;;;;;13.98;4.72;;;;;;;31.61;41.38;95033.13;5032608;28;20270;-79
2022/06/02 08:32:43;;;;;;;10.77;4.25;;;;;;;31.21;40.31;95034.91;5036812;28;20175;-79
2022/06/02 08:35:17;;;;;;;10.50;4.55;;;;;;;31.24;43.27;95036.94;5032854;28;20171;-79
2022/06/02 08:37:45;;;;;;;10.60;4.50;;;;;;;30.85;40.56;95041.81;5034204;28;20180;-82
2022/06/02 08:40:31;;;;;;;10.85;4.93;;;;;;;30.71;42.70;95035.84;5036384;28;20265;-81
2022/06/02 08:43:10;;;;;;;8.63;4.10;;;;;;;30.36;40.69;95019.00;5032450;28;20313;-81
2022/06/02 08:45:57;;;;;;;12.60;4.43;;;;;;;29.95;45.16;95027.94;5032973;28;20186;-80
2022/06/02 08:48:37;;;;;;;8.10;4.82;;;;;;;29.53;45.86;95018.88;5041583;28;20245;-81
2022/06/02 08:51:30;;;;;;;9.27;4.50;;;;;;;29.44;44.56;95032.47;5032205;28;20679;-80
2022/06/02 08:54:26;;;;;;;7.35;4.43;;;;;;;29.71;48.97;95033.16;5032469;28;20577;-78
2022/06/02 08:57:06;;;;;;;14.55;3.97;;;;;;;30.41;48.75;95032.41;5028476;28;20175;-79
2022/06/02 08:59:47;;;;;;;8.77;3.85;;;;;;;30.53;42.40;95034.44;5032257;28;20175;-80
2022/06/02 09:02:24;;;;;;;10.05;3.83;;;;;;;30.36;44.71;95027.94;5029090;28;20258;-79
2022/06/02 09:05:34;;;;;;;7.32;3.90;;;;;;;30.71;45.99;95023.03;5032505;28;20610;-79
2022/06/02 09:08:13;;;;;;;10.13;4.55;;;;;;;31.01;44.70;95025.66;5027306;28;20192;-79
2022/06/02 09:10:38;;;;;;;8.77;4.45;;;;;;;31.15;44.43;95023.44;5038009;28;20179;-79
2022/06/02 09:13:34;;;;;;;9.75;3.67;;;;;;;31.46;43.54;95031.91;5032450;28;20195;-81
2022/06/02 09:16:21;;;;;;;9.85;3.45;;;;;;;31.57;41.37;95032.22;5032421;28;20692;-80
2022/06/02 09:19:17;;;;;;;7.50;3.05;;;;;;;31.62;40.78;95026.59;5024445;28;20650;-80
2022/06/02 09:22:04;;;;;;;5.53;3.25;;;;;;;31.67;42.26;95022.84;5032184;28;20176;-82
2022/06/02 09:24:43;;;;;;;8.82;3.55;;;;;;;31.58;41.00;95019.41;5031846;28;20195;-80
2022/06/02 09:27:31;;;;;;;6.03;3.17;;;;;;;31.42;42.62;95022.00;5040153;28;20179;-82
2022/06/02 09:30:06;;;;;;;13.48;3.50;;;;;;;31.34;42.75;95007.38;5032112;28;20172;-80
2022/06/02 09:32:43;;;;;;;5.60;3.00;;;;;;;31.44;39.92;95025.97;5031753;28;20227;-81
2022/06/02 09:35:14;;;;;;;6.85;2.45;;;;;;;31.47;37.99;95021.78;5032237;28;20199;-81
2022/06/02 09:38:00;;;;;;;6.85;3.20;;;;;;;31.36;34.99;95029.59;5031641;28;20187;-81
2022/06/02 09:40:58;;;;;;;7.53;2.58;;;;;;;31.22;34.62;95022.91;5025392;28;20702;-81
2022/06/02 09:43:36;;;;;;;8.90;3.35;;;;;;;30.88;36.60;95013.13;4997315;28;20591;-81
2022/06/02 09:46:34;;;;;;;8.15;3.13;;;;;;;30.69;38.33;95013.66;5030725;28;20230;-79
2022/06/02 09:49:12;;;;;;;6.68;2.70;;;;;;;30.80;36.09;95020.25;5030340;28;20176;-82
2022/06/02 09:51:52;;;;;;;6.60;3.25;;;;;;;30.87;34.88;95014.28;5014146;28;20270;-81
2022/06/02 09:54:42;;;;;;;5.50;2.42;;;;;;;30.63;34.71;95013.03;5024181;28;20247;-86
2022/06/02 09:57:56;;;;;;;7.90;2.35;;;;;;;30.72;32.04;95010.25;5031979;28;20180;-80
2022/06/02 10:00:37;;;;;;;6.25;1.88;;;;;;;30.81;29.96;95010.97;5020936;28;20187;-82
2022/06/02 10:03:40;;;;;;;4.63;2.22;;;;;;;30.56;34.09;95006.56;5035577;28;20275;-82
2022/06/02 10:06:08;;;;;;;8.80;2.08;;;;;;;30.30;32.00;95002.09;5017684;28;20167;-82
2022/06/02 10:08:53;;;;;;;4.53;2.28;;;;;;;30.29;36.57;94995.09;5014537;28;20195;-82
2022/06/02 10:11:38;;;;;;;8.65;2.20;;;;;;;30.46;37.96;94996.06;5017474;28;20178;-82
2022/06/02 10:14:10;;;;;;;3.13;1.65;;;;;;;30.50;28.94;94999.72;5035287;28;20241;-82
2022/06/02 10:16:57;;;;;;;6.80;1.83;;;;;;;30.35;27.46;95007.38;5015183;28;20191;-82
2022/06/02 10:19:35;;;;;;;5.85;2.33;;;;;;;30.13;27.48;94994.09;5034955;28;20179;-82
2022/06/02 10:22:20;;;;;;;4.45;2.00;;;;;;;29.91;33.52;95002.53;5017213;28;20190;-81
2022/06/02 10:25:07;;;;;;;7.13;2.35;;;;;;;29.98;32.28;94989.25;5017513;28;20187;-82
2022/06/02 10:27:41;;;;;;;5.95;1.83;;;;;;;30.10;34.20;94996.69;5016798;28;20670;-82
2022/06/02 10:30:28;;;;;;;10.45;2.92;;;;;;;30.16;34.51;94985.28;5034029;28;20294;-82
2022/06/02 10:33:28;;;;;;;9.52;2.15;;;;;;;30.27;35.34;94993.84;5007627;28;20285;-82
2022/06/02 10:36:24;;;;;;;5.53;1.77;;;;;;;30.33;34.17;94982.44;5033917;28;20175;-82
2022/06/02 10:39:12;;;;;;;8.82;2.63;;;;;;;30.44;34.46;94980.13;5034170;28;20168;-82
2022/06/02 10:41:50;;;;;;;10.80;2.22;;;;;;;30.33;30.34;94976.22;5026959;28;20165;-82
2022/06/02 10:44:16;;;;;;;5.95;2.33;;;;;;;30.36;33.41;94981.75;5034754;28;20188;-82
2022/06/02 10:47:16;;;;;;;5.35;2.58;;;;;;;30.38;32.37;94967.84;5034589;28;20280;-82
2022/06/02 10:50:24;;;;;;;6.88;2.97;;;;;;;30.06;36.38;94968.59;5029279;28;20183;-82
2022/06/02 10:53:08;;;;;;;7.18;2.70;;;;;;;30.13;37.31;94956.06;5034490;28;20156;-83
2022/06/02 10:55:52;;;;;;;9.88;2.25;;;;;;;30.29;37.32;94954.31;5027388;28;20263;-82
2022/06/02 10:58:48;;;;;;;6.22;2.00;;;;;;;30.09;32.95;94903.56;5034841;28;20255;-82
2022/06/02 11:01:25;;;;;;;4.68;1.90;;;;;;;30.49;32.05;94955.44;5020452;28;20172;-82
2022/06/02 11:04:06;;;;;;;5.10;1.92;;;;;;;30.54;30.12;94955.25;5034123;28;20694;-82
2022/06/02 11:07:00;;;;;;;5.28;2.10;;;;;;;30.51;34.72;94944.22;5016596;28;20182;-82
2022/06/02 11:09:57;;;;;;;6.15;2.22;;;;;;;30.55;33.55;94954.13;5016258;28;20183;-82
2022/06/02 11:13:00;;;;;;;7.93;2.17;;;;;;;30.56;31.68;94952.19;5034152;28;20225;-82
2022/06/02 11:16:02;;;;;;;8.38;2.20;;;;;;;30.57;32.46;94959.22;5030559;28;20195;-82
2022/06/02 11:19:06;;;;;;;3.30;2.10;;;;;;;30.56;33.06;94958.44;5025485;28;20234;-81
2022/06/02 11:21:46;;;;;;;5.25;1.98;;;;;;;30.39;33.42;94953.94;5027245;28;20180;-81
2022/06/02 11:24:26;;;;;;;2.28;1.88;;;;;;;30.38;34.58;94955.06;5034241;28;20203;-81
2022/06/02 11:27:06;;;;;;;4.68;2.30;;;;;;;30.39;34.79;94951.22;5034006;28;20178;-81
2022/06/02 11:30:01;;;;;;;4.70;2.00;;;;;;;30.55;36.28;94953.31;5033958;28;20194;-81
2022/06/02 11:33:14;;;;;;;6.65;2.63;;;;;;;30.50;35.00;94948.06;5006814;28;20271;-82
2022/06/02 11:36:13;;;;;;;2.45;1.90;;;;;;;30.11;35.09;94944.72;5008460;28;20188;-82
2022/06/02 11:39:05;;;;;;;5.85;2.20;;;;;;;30.16;35.25;94932.88;5014029;28;20187;-82
2022/06/02 11:42:09;;;;;;;8.98;2.47;;;;;;;30.34;35.74;94940.56;5013491;28;20255;-82
2022/06/02 11:44:46;;;;;;;6.63;2.20;;;;;;;30.27;36.50;94934.06;4991052;28;20222;-82
2022/06/02 11:47:53;;;;;;;5.40;2.83;;;;;;;30.41;36.28;94937.28;4992844;28;20564;-82
2022/06/02 11:50:55;;;;;;;4.78;2.53;;;;;;;30.49;36.79;94930.19;5001834;28;20220;-82
2022/06/02 11:53:42;;;;;;;5.35;1.98;;;;;;;30.72;35.30;94936.84;5013491;28;20168;-82
2022/06/02 11:56:16;;;;;;;5.82;1.73;;;;;;;30.61;34.11;94920.19;5008110;28;20180;-80
2022/06/02 11:59:06;;;;;;;6.35;2.08;;;;;;;30.66;34.44;94927.31;5013631;28;20161;-80
2022/06/02 12:01:47;;;;;;;4.95;2.35;;;;;;;30.65;34.79;94923.00;4998477;28;20556;-80
2022/06/02 12:04:33;;;;;;;6.25;2.13;;;;;;;30.63;35.23;94922.53;5013570;28;20274;-80
2022/06/02 12:07:26;;;;;;;2.85;2.00;;;;;;;30.50;34.70;94931.78;4999842;28;20192;-80
2022/06/02 12:09:58;;;;;;;5.50;2.03;;;;;;;30.44;35.81;94924.97;5002972;28;20581;-80
2022/06/02 12:12:45;;;;;;;12.20;2.70;;;;;;;30.25;36.11;94925.47;5008144;28;20687;-79
2022/06/02 12:15:33;;;;;;;3.90;2.10;;;;;;;30.27;37.39;94920.50;5013420;28;20191;-79
2022/06/02 12:18:05;;;;;;;3.85;2.30;;;;;;;30.50;39.60;94913.53;5013207;28;20172;-80
2022/06/02 12:20:55;;;;;;;7.60;2.20;;;;;;;30.71;37.06;94910.78;5012798;28;20176;-80
2022/06/02 12:23:41;;;;;;;10.95;2.95;;;;;;;30.83;38.03;94915.44;5012839;28;20246;-80
2022/06/02 12:26:35;;;;;;;6.63;2.22;;;;;;;30.54;35.57;94905.53;5006471;28;20556;-80
2022/06/02 12:29:26;;;;;;;4.45;2.28;;;;;;;30.19;35.64;94918.63;5013142;28;20239;-79
2022/06/02 12:32:00;;;;;;;4.13;2.35;;;;;;;29.87;36.15;94922.84;5013367;28;20678;-79
2022/06/02 12:34:43;;;;;;;9.48;2.55;;;;;;;29.51;37.16;94928.84;5025826;28;20215;-79
2022/06/02 12:38:02;;;;;;;4.90;2.30;;;;;;;29.35;37.25;94923.16;5032771;28;20184;-79
2022/06/02 12:40:34;;;;;;;5.20;2.20;;;;;;;29.21;38.19;94917.97;4948635;29;20632;-80
2022/06/02 12:43:08;;;;;;;4.18;2.38;;;;;;;29.14;37.95;94919.63;5018587;28;20219;-79
2022/06/02 12:45:50;;;;;;;5.35;2.20;;;;;;;29.10;37.66;94926.81;5032382;28;20561;-80
2022/06/02 12:48:53;;;;;;;8.45;2.25;;;;;;;29.06;38.23;94931.31;5032122;28;20187;-79
2022/06/02 12:51:34;;;;;;;5.45;2.42;;;;;;;28.99;38.87;94930.97;5032903;28;20179;-80
2022/06/02 12:54:25;;;;;;;3.13;2.35;;;;;;;28.98;39.26;94923.97;5014588;28;21123;-79
2022/06/02 12:57:11;;;;;;;5.53;2.42;;;;;;;28.97;39.44;94934.03;5032141;28;20663;-80
2022/06/02 13:00:13;;;;;;;10.88;2.63;;;;;;;28.92;39.53;94930.69;5032270;28;20167;-79
2022/06/02 13:03:20;;;;;;;8.07;2.72;;;;;;;28.83;40.52;94926.09;5024796;28;20254;-79
2022/06/02 13:06:10;;;;;;;6.40;2.80;;;;;;;28.80;40.57;94932.16;4982984;28;20189;-82